sensor_id;sensor_type;location;lat;lon;timestamp;temperature;humidity
33863;DHT22;20158;51.436;-2.742;2024-02-04T00:01:55;13.50;71.30
33863;DHT22;20158;51.436;-2.742;2024-02-04T00:04:23;13.40;71.10
33863;DHT22;20158;51.436;-2.742;2024-02-04T00:06:49;13.40;71.20
33863;DHT22;20158;51.436;-2.742;2024-02-04T00:09:18;13.40;71.20
33863;DHT22;20158;51.436;-2.742;2024-02-04T00:11:44;13.40;71.20
33863;DHT22;20158;51.436;-2.742;2024-02-04T00:14:13;13.40;71.20
33863;DHT22;20158;51.436;-2.742;2024-02-04T00:16:48;13.40;71.20
33863;DHT22;20158;51.436;-2.742;2024-02-04T00:19:14;13.40;71.30
33863;DHT22;20158;51.436;-2.742;2024-02-04T00:21:40;13.40;71.30
33863;DHT22;20158;51.436;-2.742;2024-02-04T00:24:06;13.40;71.30
33863;DHT22;20158;51.436;-2.742;2024-02-04T00:26:32;13.30;71.20
33863;DHT22;20158;51.436;-2.742;2024-02-04T00:28:58;13.30;71.20
33863;DHT22;20158;51.436;-2.742;2024-02-04T00:31:24;13.40;71.40
33863;DHT22;20158;51.436;-2.742;2024-02-04T00:34:02;13.40;71.40
33863;DHT22;20158;51.436;-2.742;2024-02-04T00:36:29;13.30;71.30
33863;DHT22;20158;51.436;-2.742;2024-02-04T00:38:56;13.30;71.30
33863;DHT22;20158;51.436;-2.742;2024-02-04T00:41:22;13.40;71.50
33863;DHT22;20158;51.436;-2.742;2024-02-04T00:43:48;13.30;71.30
33863;DHT22;20158;51.436;-2.742;2024-02-04T00:46:14;13.30;71.40
33863;DHT22;20158;51.436;-2.742;2024-02-04T00:48:41;13.30;71.40
33863;DHT22;20158;51.436;-2.742;2024-02-04T00:51:07;13.30;71.40
33863;DHT22;20158;51.436;-2.742;2024-02-04T00:53:33;13.30;71.40
33863;DHT22;20158;51.436;-2.742;2024-02-04T00:56:03;13.30;71.50
33863;DHT22;20158;51.436;-2.742;2024-02-04T00:58:36;13.30;71.50
33863;DHT22;20158;51.436;-2.742;2024-02-04T01:01:01;13.30;71.50
33863;DHT22;20158;51.436;-2.742;2024-02-04T01:03:28;13.30;71.50
33863;DHT22;20158;51.436;-2.742;2024-02-04T01:05:54;13.30;71.50
33863;DHT22;20158;51.436;-2.742;2024-02-04T01:08:24;13.30;72.20
33863;DHT22;20158;51.436;-2.742;2024-02-04T01:10:50;13.30;71.60
33863;DHT22;20158;51.436;-2.742;2024-02-04T01:13:17;13.30;71.60
33863;DHT22;20158;51.436;-2.742;2024-02-04T01:15:43;13.30;71.60
33863;DHT22;20158;51.436;-2.742;2024-02-04T01:18:10;13.30;71.60
33863;DHT22;20158;51.436;-2.742;2024-02-04T01:20:39;13.30;71.60
33863;DHT22;20158;51.436;-2.742;2024-02-04T01:23:05;13.20;71.50
33863;DHT22;20158;51.436;-2.742;2024-02-04T01:25:33;13.20;71.50
33863;DHT22;20158;51.436;-2.742;2024-02-04T01:28:00;13.20;71.50
33863;DHT22;20158;51.436;-2.742;2024-02-04T01:30:25;13.20;71.60
33863;DHT22;20158;51.436;-2.742;2024-02-04T01:32:51;13.20;71.60
33863;DHT22;20158;51.436;-2.742;2024-02-04T01:35:21;13.20;71.60
33863;DHT22;20158;51.436;-2.742;2024-02-04T01:37:46;13.20;71.60
33863;DHT22;20158;51.436;-2.742;2024-02-04T01:40:14;13.20;71.70
33863;DHT22;20158;51.436;-2.742;2024-02-04T01:42:41;13.20;71.70
33863;DHT22;20158;51.436;-2.742;2024-02-04T01:45:07;13.20;71.70
33863;DHT22;20158;51.436;-2.742;2024-02-04T01:47:33;13.20;71.70
33863;DHT22;20158;51.436;-2.742;2024-02-04T01:50:03;13.20;71.80
33863;DHT22;20158;51.436;-2.742;2024-02-04T01:52:31;13.20;71.80
33863;DHT22;20158;51.436;-2.742;2024-02-04T01:55:01;13.20;71.80
33863;DHT22;20158;51.436;-2.742;2024-02-04T01:57:31;13.20;71.80
33863;DHT22;20158;51.436;-2.742;2024-02-04T01:59:58;13.20;71.80
33863;DHT22;20158;51.436;-2.742;2024-02-04T02:02:25;13.20;71.80
33863;DHT22;20158;51.436;-2.742;2024-02-04T02:04:51;13.20;71.80
33863;DHT22;20158;51.436;-2.742;2024-02-04T02:07:21;13.20;71.90
33863;DHT22;20158;51.436;-2.742;2024-02-04T02:09:47;13.20;71.90
33863;DHT22;20158;51.436;-2.742;2024-02-04T02:12:30;13.20;71.90
33863;DHT22;20158;51.436;-2.742;2024-02-04T02:15:05;13.20;71.90
33863;DHT22;20158;51.436;-2.742;2024-02-04T02:17:37;13.10;71.70
33863;DHT22;20158;51.436;-2.742;2024-02-04T02:20:14;13.10;71.70
33863;DHT22;20158;51.436;-2.742;2024-02-04T02:25:31;13.10;71.70
33863;DHT22;20158;51.436;-2.742;2024-02-04T02:27:57;13.10;71.70
33863;DHT22;20158;51.436;-2.742;2024-02-04T02:30:23;13.10;71.80
33863;DHT22;20158;51.436;-2.742;2024-02-04T02:32:50;13.10;71.80
33863;DHT22;20158;51.436;-2.742;2024-02-04T02:35:19;13.10;71.90
33863;DHT22;20158;51.436;-2.742;2024-02-04T02:38:32;13.10;71.90
33863;DHT22;20158;51.436;-2.742;2024-02-04T02:41:07;13.10;72.00
33863;DHT22;20158;51.436;-2.742;2024-02-04T02:43:34;13.10;71.90
33863;DHT22;20158;51.436;-2.742;2024-02-04T02:46:01;13.10;71.90
33863;DHT22;20158;51.436;-2.742;2024-02-04T02:48:27;13.10;72.00
33863;DHT22;20158;51.436;-2.742;2024-02-04T02:50:53;13.10;72.00
33863;DHT22;20158;51.436;-2.742;2024-02-04T02:53:19;13.10;72.00
33863;DHT22;20158;51.436;-2.742;2024-02-04T02:55:46;13.10;72.00
33863;DHT22;20158;51.436;-2.742;2024-02-04T02:58:13;13.00;71.80
33863;DHT22;20158;51.436;-2.742;2024-02-04T03:00:39;13.10;72.10
33863;DHT22;20158;51.436;-2.742;2024-02-04T03:03:06;13.10;72.10
33863;DHT22;20158;51.436;-2.742;2024-02-04T03:05:32;13.00;72.40
33863;DHT22;20158;51.436;-2.742;2024-02-04T03:07:58;13.00;71.90
33863;DHT22;20158;51.436;-2.742;2024-02-04T03:10:27;13.00;72.00
33863;DHT22;20158;51.436;-2.742;2024-02-04T03:12:53;13.00;71.90
33863;DHT22;20158;51.436;-2.742;2024-02-04T03:15:19;13.00;72.00
33863;DHT22;20158;51.436;-2.742;2024-02-04T03:17:46;13.00;72.00
33863;DHT22;20158;51.436;-2.742;2024-02-04T03:20:12;13.00;72.00
33863;DHT22;20158;51.436;-2.742;2024-02-04T03:22:37;13.00;72.00
33863;DHT22;20158;51.436;-2.742;2024-02-04T03:25:04;13.00;72.10
33863;DHT22;20158;51.436;-2.742;2024-02-04T03:27:30;13.00;72.10
33863;DHT22;20158;51.436;-2.742;2024-02-04T03:29:56;13.00;72.10
33863;DHT22;20158;51.436;-2.742;2024-02-04T03:32:23;13.00;72.10
33863;DHT22;20158;51.436;-2.742;2024-02-04T03:34:49;12.90;72.00
33863;DHT22;20158;51.436;-2.742;2024-02-04T03:37:15;13.00;72.10
33863;DHT22;20158;51.436;-2.742;2024-02-04T03:39:44;13.00;72.10
33863;DHT22;20158;51.436;-2.742;2024-02-04T03:42:10;12.90;72.00
33863;DHT22;20158;51.436;-2.742;2024-02-04T03:44:36;13.00;72.20
33863;DHT22;20158;51.436;-2.742;2024-02-04T03:47:01;13.00;72.30
33863;DHT22;20158;51.436;-2.742;2024-02-04T03:49:29;13.00;72.20
33863;DHT22;20158;51.436;-2.742;2024-02-04T03:51:58;13.00;72.30
33863;DHT22;20158;51.436;-2.742;2024-02-04T03:54:24;13.00;72.20
33863;DHT22;20158;51.436;-2.742;2024-02-04T03:56:49;12.90;72.10
33863;DHT22;20158;51.436;-2.742;2024-02-04T03:59:18;13.00;72.30
33863;DHT22;20158;51.436;-2.742;2024-02-04T04:01:49;12.90;72.10
33863;DHT22;20158;51.436;-2.742;2024-02-04T04:04:22;12.90;72.10
33863;DHT22;20158;51.436;-2.742;2024-02-04T04:06:51;12.90;72.10
33863;DHT22;20158;51.436;-2.742;2024-02-04T04:09:19;12.90;72.10
33863;DHT22;20158;51.436;-2.742;2024-02-04T04:11:48;12.90;72.60
33863;DHT22;20158;51.436;-2.742;2024-02-04T04:14:17;12.90;72.10
33863;DHT22;20158;51.436;-2.742;2024-02-04T04:16:46;12.90;72.20
33863;DHT22;20158;51.436;-2.742;2024-02-04T04:19:12;12.90;72.30
33863;DHT22;20158;51.436;-2.742;2024-02-04T04:21:39;12.90;72.30
33863;DHT22;20158;51.436;-2.742;2024-02-04T04:24:05;12.90;72.30
33863;DHT22;20158;51.436;-2.742;2024-02-04T04:26:32;12.90;72.30
33863;DHT22;20158;51.436;-2.742;2024-02-04T04:28:59;12.90;72.40
33863;DHT22;20158;51.436;-2.742;2024-02-04T04:31:25;12.90;72.40
33863;DHT22;20158;51.436;-2.742;2024-02-04T04:33:50;12.90;72.40
33863;DHT22;20158;51.436;-2.742;2024-02-04T04:36:18;12.90;72.60
33863;DHT22;20158;51.436;-2.742;2024-02-04T04:38:44;12.90;72.40
33863;DHT22;20158;51.436;-2.742;2024-02-04T04:41:09;12.90;72.40
33863;DHT22;20158;51.436;-2.742;2024-02-04T04:43:38;12.90;72.40
33863;DHT22;20158;51.436;-2.742;2024-02-04T04:46:04;12.90;72.50
33863;DHT22;20158;51.436;-2.742;2024-02-04T04:48:30;12.90;72.50
33863;DHT22;20158;51.436;-2.742;2024-02-04T04:50:57;12.90;72.50
33863;DHT22;20158;51.436;-2.742;2024-02-04T04:53:23;12.90;72.50
33863;DHT22;20158;51.436;-2.742;2024-02-04T04:55:49;12.90;72.50
33863;DHT22;20158;51.436;-2.742;2024-02-04T04:58:15;12.80;72.40
33863;DHT22;20158;51.436;-2.742;2024-02-04T05:00:41;12.90;72.60
33863;DHT22;20158;51.436;-2.742;2024-02-04T05:03:07;12.80;72.40
33863;DHT22;20158;51.436;-2.742;2024-02-04T05:05:33;12.80;72.50
33863;DHT22;20158;51.436;-2.742;2024-02-04T05:07:58;12.80;72.50
33863;DHT22;20158;51.436;-2.742;2024-02-04T05:10:24;12.90;72.70
33863;DHT22;20158;51.436;-2.742;2024-02-04T05:12:50;12.80;72.50
33863;DHT22;20158;51.436;-2.742;2024-02-04T05:15:18;12.80;72.50
33863;DHT22;20158;51.436;-2.742;2024-02-04T05:17:44;12.90;72.80
33863;DHT22;20158;51.436;-2.742;2024-02-04T05:20:10;12.80;72.60
33863;DHT22;20158;51.436;-2.742;2024-02-04T05:22:36;12.90;72.80
33863;DHT22;20158;51.436;-2.742;2024-02-04T05:25:01;12.90;72.80
33863;DHT22;20158;51.436;-2.742;2024-02-04T05:27:28;12.90;72.80
33863;DHT22;20158;51.436;-2.742;2024-02-04T05:29:54;12.80;72.60
33863;DHT22;20158;51.436;-2.742;2024-02-04T05:32:20;12.80;72.60
33863;DHT22;20158;51.436;-2.742;2024-02-04T05:34:46;12.80;72.70
33863;DHT22;20158;51.436;-2.742;2024-02-04T05:37:12;12.90;72.80
33863;DHT22;20158;51.436;-2.742;2024-02-04T05:39:37;12.90;72.80
33863;DHT22;20158;51.436;-2.742;2024-02-04T05:42:03;12.80;72.70
33863;DHT22;20158;51.436;-2.742;2024-02-04T05:44:29;12.80;72.70
33863;DHT22;20158;51.436;-2.742;2024-02-04T05:46:58;12.90;72.90
33863;DHT22;20158;51.436;-2.742;2024-02-04T05:49:25;12.90;72.90
33863;DHT22;20158;51.436;-2.742;2024-02-04T05:51:50;12.90;72.90
33863;DHT22;20158;51.436;-2.742;2024-02-04T05:54:16;12.80;72.80
33863;DHT22;20158;51.436;-2.742;2024-02-04T05:56:42;12.80;72.80
33863;DHT22;20158;51.436;-2.742;2024-02-04T05:59:08;12.80;72.80
33863;DHT22;20158;51.436;-2.742;2024-02-04T06:01:34;12.80;72.80
33863;DHT22;20158;51.436;-2.742;2024-02-04T06:03:59;12.80;72.90
33863;DHT22;20158;51.436;-2.742;2024-02-04T06:06:25;12.80;72.90
33863;DHT22;20158;51.436;-2.742;2024-02-04T06:08:51;12.80;72.90
33863;DHT22;20158;51.436;-2.742;2024-02-04T06:11:17;12.80;72.90
33863;DHT22;20158;51.436;-2.742;2024-02-04T06:13:44;12.80;72.90
33863;DHT22;20158;51.436;-2.742;2024-02-04T06:16:10;12.80;72.90
33863;DHT22;20158;51.436;-2.742;2024-02-04T06:18:39;12.80;72.90
33863;DHT22;20158;51.436;-2.742;2024-02-04T06:21:06;12.80;72.90
33863;DHT22;20158;51.436;-2.742;2024-02-04T06:23:32;12.80;72.90
33863;DHT22;20158;51.436;-2.742;2024-02-04T06:25:58;12.80;72.90
33863;DHT22;20158;51.436;-2.742;2024-02-04T06:28:24;12.80;72.90
33863;DHT22;20158;51.436;-2.742;2024-02-04T06:30:49;12.90;73.10
33863;DHT22;20158;51.436;-2.742;2024-02-04T06:33:16;12.80;72.90
33863;DHT22;20158;51.436;-2.742;2024-02-04T06:35:42;12.80;72.90
33863;DHT22;20158;51.436;-2.742;2024-02-04T06:38:08;12.90;73.10
33863;DHT22;20158;51.436;-2.742;2024-02-04T06:40:34;12.80;72.90
33863;DHT22;20158;51.436;-2.742;2024-02-04T06:43:00;12.90;73.20
33863;DHT22;20158;51.436;-2.742;2024-02-04T06:45:26;12.90;73.20
33863;DHT22;20158;51.436;-2.742;2024-02-04T06:47:52;12.90;73.20
33863;DHT22;20158;51.436;-2.742;2024-02-04T06:50:18;12.90;73.20
33863;DHT22;20158;51.436;-2.742;2024-02-04T06:52:44;12.90;73.20
33863;DHT22;20158;51.436;-2.742;2024-02-04T06:55:11;12.90;73.20
33863;DHT22;20158;51.436;-2.742;2024-02-04T06:57:37;12.90;73.20
33863;DHT22;20158;51.436;-2.742;2024-02-04T07:00:04;12.90;73.20
33863;DHT22;20158;51.436;-2.742;2024-02-04T07:02:37;12.90;73.30
33863;DHT22;20158;51.436;-2.742;2024-02-04T07:05:04;12.90;73.30
33863;DHT22;20158;51.436;-2.742;2024-02-04T07:07:30;12.90;73.30
33863;DHT22;20158;51.436;-2.742;2024-02-04T07:09:58;12.90;73.50
33863;DHT22;20158;51.436;-2.742;2024-02-04T07:12:23;13.00;74.00
33863;DHT22;20158;51.436;-2.742;2024-02-04T07:14:49;13.00;74.20
33863;DHT22;20158;51.436;-2.742;2024-02-04T07:17:15;13.10;74.40
33863;DHT22;20158;51.436;-2.742;2024-02-04T07:19:41;13.30;74.70
33863;DHT22;20158;51.436;-2.742;2024-02-04T07:22:07;13.30;74.60
33863;DHT22;20158;51.436;-2.742;2024-02-04T07:24:34;13.40;74.80
33863;DHT22;20158;51.436;-2.742;2024-02-04T07:27:01;13.40;74.80
33863;DHT22;20158;51.436;-2.742;2024-02-04T07:29:27;13.50;75.00
33863;DHT22;20158;51.436;-2.742;2024-02-04T07:31:53;13.50;75.10
33863;DHT22;20158;51.436;-2.742;2024-02-04T07:34:22;13.50;75.10
33863;DHT22;20158;51.436;-2.742;2024-02-04T07:36:51;13.60;75.40
33863;DHT22;20158;51.436;-2.742;2024-02-04T07:39:18;13.60;75.40
33863;DHT22;20158;51.436;-2.742;2024-02-04T07:41:44;13.60;75.50
33863;DHT22;20158;51.436;-2.742;2024-02-04T07:44:10;13.60;75.60
33863;DHT22;20158;51.436;-2.742;2024-02-04T07:46:35;13.60;75.70
33863;DHT22;20158;51.436;-2.742;2024-02-04T07:49:01;13.60;75.80
33863;DHT22;20158;51.436;-2.742;2024-02-04T07:51:27;13.60;75.90
33863;DHT22;20158;51.436;-2.742;2024-02-04T07:53:53;13.70;76.20
33863;DHT22;20158;51.436;-2.742;2024-02-04T07:56:19;13.70;76.70
33863;DHT22;20158;51.436;-2.742;2024-02-04T07:58:45;13.80;76.30
33863;DHT22;20158;51.436;-2.742;2024-02-04T08:01:11;13.90;76.30
33863;DHT22;20158;51.436;-2.742;2024-02-04T08:03:37;14.00;76.30
33863;DHT22;20158;51.436;-2.742;2024-02-04T08:06:04;14.00;76.00
33863;DHT22;20158;51.436;-2.742;2024-02-04T08:08:30;14.10;76.00
33863;DHT22;20158;51.436;-2.742;2024-02-04T08:10:56;14.10;75.80
33863;DHT22;20158;51.436;-2.742;2024-02-04T08:13:22;14.10;75.80
33863;DHT22;20158;51.436;-2.742;2024-02-04T08:15:48;14.00;75.60
33863;DHT22;20158;51.436;-2.742;2024-02-04T08:18:14;14.00;75.60
33863;DHT22;20158;51.436;-2.742;2024-02-04T08:20:40;14.00;75.60
33863;DHT22;20158;51.436;-2.742;2024-02-04T08:23:07;14.00;75.60
33863;DHT22;20158;51.436;-2.742;2024-02-04T08:25:33;14.00;75.70
33863;DHT22;20158;51.436;-2.742;2024-02-04T08:27:59;14.00;75.70
33863;DHT22;20158;51.436;-2.742;2024-02-04T08:30:25;13.90;75.50
33863;DHT22;20158;51.436;-2.742;2024-02-04T08:32:52;14.00;75.70
33863;DHT22;20158;51.436;-2.742;2024-02-04T08:35:18;13.90;75.50
33863;DHT22;20158;51.436;-2.742;2024-02-04T08:37:47;14.00;75.70
33863;DHT22;20158;51.436;-2.742;2024-02-04T08:40:13;13.90;75.50
33863;DHT22;20158;51.436;-2.742;2024-02-04T08:42:39;13.90;75.50
33863;DHT22;20158;51.436;-2.742;2024-02-04T08:45:06;13.90;75.50
33863;DHT22;20158;51.436;-2.742;2024-02-04T08:47:33;13.90;75.50
33863;DHT22;20158;51.436;-2.742;2024-02-04T08:49:59;13.90;75.50
33863;DHT22;20158;51.436;-2.742;2024-02-04T08:52:25;14.00;75.70
33863;DHT22;20158;51.436;-2.742;2024-02-04T08:54:51;14.00;75.60
33863;DHT22;20158;51.436;-2.742;2024-02-04T08:57:17;14.00;75.70
33863;DHT22;20158;51.436;-2.742;2024-02-04T08:59:46;14.00;75.60
33863;DHT22;20158;51.436;-2.742;2024-02-04T09:02:12;14.00;75.60
33863;DHT22;20158;51.436;-2.742;2024-02-04T09:04:37;14.00;75.60
33863;DHT22;20158;51.436;-2.742;2024-02-04T09:07:18;14.00;75.60
33863;DHT22;20158;51.436;-2.742;2024-02-04T09:09:46;14.10;75.70
33863;DHT22;20158;51.436;-2.742;2024-02-04T09:12:15;14.10;75.70
33863;DHT22;20158;51.436;-2.742;2024-02-04T09:14:41;14.10;75.70
33863;DHT22;20158;51.436;-2.742;2024-02-04T09:17:10;14.10;75.70
33863;DHT22;20158;51.436;-2.742;2024-02-04T09:19:39;14.10;75.70
33863;DHT22;20158;51.436;-2.742;2024-02-04T09:22:05;14.10;75.70
33863;DHT22;20158;51.436;-2.742;2024-02-04T09:24:32;14.10;75.60
33863;DHT22;20158;51.436;-2.742;2024-02-04T09:27:01;14.10;75.60
33863;DHT22;20158;51.436;-2.742;2024-02-04T09:29:27;14.20;75.80
33863;DHT22;20158;51.436;-2.742;2024-02-04T09:31:53;14.20;75.80
33863;DHT22;20158;51.436;-2.742;2024-02-04T09:34:19;14.20;75.80
33863;DHT22;20158;51.436;-2.742;2024-02-04T09:36:46;14.20;75.80
33863;DHT22;20158;51.436;-2.742;2024-02-04T09:39:12;14.30;75.90
33863;DHT22;20158;51.436;-2.742;2024-02-04T09:41:38;14.30;75.90
33863;DHT22;20158;51.436;-2.742;2024-02-04T09:44:05;14.30;76.00
33863;DHT22;20158;51.436;-2.742;2024-02-04T09:46:33;14.30;76.10
33863;DHT22;20158;51.436;-2.742;2024-02-04T09:48:59;14.40;76.40
33863;DHT22;20158;51.436;-2.742;2024-02-04T09:51:26;14.40;76.60
33863;DHT22;20158;51.436;-2.742;2024-02-04T09:54:00;14.50;77.00
33863;DHT22;20158;51.436;-2.742;2024-02-04T09:56:33;14.50;77.20
33863;DHT22;20158;51.436;-2.742;2024-02-04T09:59:00;14.60;77.30
33863;DHT22;20158;51.436;-2.742;2024-02-04T10:01:26;14.60;77.30
33863;DHT22;20158;51.436;-2.742;2024-02-04T10:03:52;14.60;77.20
33863;DHT22;20158;51.436;-2.742;2024-02-04T10:06:18;14.60;77.10
33863;DHT22;20158;51.436;-2.742;2024-02-04T10:08:44;14.70;77.30
33863;DHT22;20158;51.436;-2.742;2024-02-04T10:11:12;14.60;77.00
33863;DHT22;20158;51.436;-2.742;2024-02-04T10:13:49;14.60;76.90
33863;DHT22;20158;51.436;-2.742;2024-02-04T10:16:16;14.70;77.00
33863;DHT22;20158;51.436;-2.742;2024-02-04T10:18:47;14.70;76.90
33863;DHT22;20158;51.436;-2.742;2024-02-04T10:21:18;14.70;76.80
33863;DHT22;20158;51.436;-2.742;2024-02-04T10:23:48;14.70;76.60
33863;DHT22;20158;51.436;-2.742;2024-02-04T10:26:18;14.70;76.50
33863;DHT22;20158;51.436;-2.742;2024-02-04T10:28:46;14.70;76.40
33863;DHT22;20158;51.436;-2.742;2024-02-04T10:31:14;14.70;76.30
33863;DHT22;20158;51.436;-2.742;2024-02-04T10:33:40;14.70;76.20
33863;DHT22;20158;51.436;-2.742;2024-02-04T10:36:07;14.80;76.20
33863;DHT22;20158;51.436;-2.742;2024-02-04T10:38:33;14.80;76.10
33863;DHT22;20158;51.436;-2.742;2024-02-04T10:41:01;14.80;76.00
33863;DHT22;20158;51.436;-2.742;2024-02-04T10:43:33;14.80;75.80
33863;DHT22;20158;51.436;-2.742;2024-02-04T10:46:17;14.80;75.70
33863;DHT22;20158;51.436;-2.742;2024-02-04T10:48:52;14.80;75.60
33863;DHT22;20158;51.436;-2.742;2024-02-04T10:51:24;14.90;75.70
33863;DHT22;20158;51.436;-2.742;2024-02-04T10:53:55;14.90;75.60
33863;DHT22;20158;51.436;-2.742;2024-02-04T10:56:37;14.90;75.50
33863;DHT22;20158;51.436;-2.742;2024-02-04T10:59:07;14.90;75.30
33863;DHT22;20158;51.436;-2.742;2024-02-04T11:01:36;15.00;75.30
33863;DHT22;20158;51.436;-2.742;2024-02-04T11:04:04;15.00;75.20
33863;DHT22;20158;51.436;-2.742;2024-02-04T11:06:35;15.00;75.00
33863;DHT22;20158;51.436;-2.742;2024-02-04T11:09:08;15.10;75.10
33863;DHT22;20158;51.436;-2.742;2024-02-04T11:11:39;15.10;75.00
33863;DHT22;20158;51.436;-2.742;2024-02-04T11:14:11;15.10;74.80
33863;DHT22;20158;51.436;-2.742;2024-02-04T11:16:50;15.20;74.90
33863;DHT22;20158;51.436;-2.742;2024-02-04T11:19:56;15.20;74.70
33863;DHT22;20158;51.436;-2.742;2024-02-04T11:25:19;15.30;74.50
33863;DHT22;20158;51.436;-2.742;2024-02-04T11:27:52;15.40;74.40
33863;DHT22;20158;51.436;-2.742;2024-02-04T11:30:19;15.40;74.20
33863;DHT22;20158;51.436;-2.742;2024-02-04T11:32:51;15.50;74.20
33863;DHT22;20158;51.436;-2.742;2024-02-04T11:35:21;15.50;74.20
33863;DHT22;20158;51.436;-2.742;2024-02-04T11:37:51;15.50;74.10
33863;DHT22;20158;51.436;-2.742;2024-02-04T11:40:33;15.50;74.10
33863;DHT22;20158;51.436;-2.742;2024-02-04T11:43:27;15.50;74.00
33863;DHT22;20158;51.436;-2.742;2024-02-04T11:45:56;15.50;73.90
33863;DHT22;20158;51.436;-2.742;2024-02-04T11:48:29;15.50;73.90
33863;DHT22;20158;51.436;-2.742;2024-02-04T11:50:58;15.40;73.70
33863;DHT22;20158;51.436;-2.742;2024-02-04T11:53:29;15.40;73.80
33863;DHT22;20158;51.436;-2.742;2024-02-04T11:56:06;15.40;74.30
33863;DHT22;20158;51.436;-2.742;2024-02-04T11:58:39;15.40;73.90
33863;DHT22;20158;51.436;-2.742;2024-02-04T12:01:13;15.50;74.00
33863;DHT22;20158;51.436;-2.742;2024-02-04T12:03:45;15.60;74.00
33863;DHT22;20158;51.436;-2.742;2024-02-04T12:06:15;15.70;73.80
33863;DHT22;20158;51.436;-2.742;2024-02-04T12:08:44;15.80;73.50
33863;DHT22;20158;51.436;-2.742;2024-02-04T12:11:11;15.90;73.40
33863;DHT22;20158;51.436;-2.742;2024-02-04T12:13:38;16.00;73.20
33863;DHT22;20158;51.436;-2.742;2024-02-04T12:16:06;16.20;73.10
33863;DHT22;20158;51.436;-2.742;2024-02-04T12:18:48;16.30;72.90
33863;DHT22;20158;51.436;-2.742;2024-02-04T12:21:14;16.40;72.60
33863;DHT22;20158;51.436;-2.742;2024-02-04T12:23:44;16.50;72.60
33863;DHT22;20158;51.436;-2.742;2024-02-04T12:26:13;16.50;72.40
33863;DHT22;20158;51.436;-2.742;2024-02-04T12:28:40;16.60;72.40
33863;DHT22;20158;51.436;-2.742;2024-02-04T12:31:06;16.60;72.20
33863;DHT22;20158;51.436;-2.742;2024-02-04T12:33:33;16.70;72.20
33863;DHT22;20158;51.436;-2.742;2024-02-04T12:36:01;16.70;72.00
33863;DHT22;20158;51.436;-2.742;2024-02-04T12:38:29;16.80;71.90
33863;DHT22;20158;51.436;-2.742;2024-02-04T12:41:02;16.90;71.90
33863;DHT22;20158;51.436;-2.742;2024-02-04T12:43:29;16.90;71.60
33863;DHT22;20158;51.436;-2.742;2024-02-04T12:45:59;17.00;71.70
33863;DHT22;20158;51.436;-2.742;2024-02-04T12:48:28;17.10;71.80
33863;DHT22;20158;51.436;-2.742;2024-02-04T12:50:59;17.20;71.90
33863;DHT22;20158;51.436;-2.742;2024-02-04T12:53:26;17.40;71.90
33863;DHT22;20158;51.436;-2.742;2024-02-04T12:55:59;17.60;71.90
33863;DHT22;20158;51.436;-2.742;2024-02-04T12:58:42;17.80;72.50
33863;DHT22;20158;51.436;-2.742;2024-02-04T13:01:17;18.00;71.90
33863;DHT22;20158;51.436;-2.742;2024-02-04T13:03:44;18.20;71.90
33863;DHT22;20158;51.436;-2.742;2024-02-04T13:06:28;18.30;72.00
33863;DHT22;20158;51.436;-2.742;2024-02-04T13:08:58;18.40;72.20
33863;DHT22;20158;51.436;-2.742;2024-02-04T13:11:25;18.50;72.40
33863;DHT22;20158;51.436;-2.742;2024-02-04T13:13:54;18.60;72.70
33863;DHT22;20158;51.436;-2.742;2024-02-04T13:16:27;18.70;73.00
33863;DHT22;20158;51.436;-2.742;2024-02-04T13:19:03;18.80;73.10
33863;DHT22;20158;51.436;-2.742;2024-02-04T13:21:32;18.80;73.00
33863;DHT22;20158;51.436;-2.742;2024-02-04T13:24:05;18.90;73.00
33863;DHT22;20158;51.436;-2.742;2024-02-04T13:26:31;18.90;72.70
33863;DHT22;20158;51.436;-2.742;2024-02-04T13:28:57;19.00;72.50
33863;DHT22;20158;51.436;-2.742;2024-02-04T13:31:27;18.90;71.90
33863;DHT22;20158;51.436;-2.742;2024-02-04T13:33:57;18.90;71.70
33863;DHT22;20158;51.436;-2.742;2024-02-04T13:36:27;18.80;71.30
33863;DHT22;20158;51.436;-2.742;2024-02-04T13:38:57;18.80;71.10
33863;DHT22;20158;51.436;-2.742;2024-02-04T13:41:22;18.70;70.70
33863;DHT22;20158;51.436;-2.742;2024-02-04T13:43:49;18.60;70.40
33863;DHT22;20158;51.436;-2.742;2024-02-04T13:46:34;18.60;70.20
33863;DHT22;20158;51.436;-2.742;2024-02-04T13:49:03;18.60;70.20
33863;DHT22;20158;51.436;-2.742;2024-02-04T13:51:30;18.50;69.80
33863;DHT22;20158;51.436;-2.742;2024-02-04T13:53:58;18.50;69.60
33863;DHT22;20158;51.436;-2.742;2024-02-04T13:56:32;18.50;69.30
33863;DHT22;20158;51.436;-2.742;2024-02-04T13:59:01;18.50;69.10
33863;DHT22;20158;51.436;-2.742;2024-02-04T14:01:27;18.60;69.00
33863;DHT22;20158;51.436;-2.742;2024-02-04T14:04:09;18.60;68.80
33863;DHT22;20158;51.436;-2.742;2024-02-04T14:06:39;18.60;68.70
33863;DHT22;20158;51.436;-2.742;2024-02-04T14:09:11;18.60;68.60
33863;DHT22;20158;51.436;-2.742;2024-02-04T14:11:41;18.60;68.50
33863;DHT22;20158;51.436;-2.742;2024-02-04T14:14:17;18.60;68.50
33863;DHT22;20158;51.436;-2.742;2024-02-04T14:16:44;18.60;68.50
33863;DHT22;20158;51.436;-2.742;2024-02-04T14:19:10;18.60;68.40
33863;DHT22;20158;51.436;-2.742;2024-02-04T14:21:42;18.70;68.50
33863;DHT22;20158;51.436;-2.742;2024-02-04T14:24:09;18.70;68.40
33863;DHT22;20158;51.436;-2.742;2024-02-04T14:26:38;18.80;68.40
33863;DHT22;20158;51.436;-2.742;2024-02-04T14:29:04;18.90;68.30
33863;DHT22;20158;51.436;-2.742;2024-02-04T14:31:30;18.90;68.10
33863;DHT22;20158;51.436;-2.742;2024-02-04T14:33:57;18.90;68.10
33863;DHT22;20158;51.436;-2.742;2024-02-04T14:36:24;18.90;68.10
33863;DHT22;20158;51.436;-2.742;2024-02-04T14:38:50;18.90;68.20
33863;DHT22;20158;51.436;-2.742;2024-02-04T14:41:17;18.80;68.10
33863;DHT22;20158;51.436;-2.742;2024-02-04T14:43:43;18.80;68.10
33863;DHT22;20158;51.436;-2.742;2024-02-04T14:46:09;18.80;68.10
33863;DHT22;20158;51.436;-2.742;2024-02-04T14:48:36;18.70;67.90
33863;DHT22;20158;51.436;-2.742;2024-02-04T14:51:03;18.60;67.80
33863;DHT22;20158;51.436;-2.742;2024-02-04T14:53:29;18.60;67.90
33863;DHT22;20158;51.436;-2.742;2024-02-04T14:55:56;18.60;67.90
33863;DHT22;20158;51.436;-2.742;2024-02-04T14:58:29;18.50;67.80
33863;DHT22;20158;51.436;-2.742;2024-02-04T15:00:55;18.50;67.80
33863;DHT22;20158;51.436;-2.742;2024-02-04T15:03:21;18.40;68.10
33863;DHT22;20158;51.436;-2.742;2024-02-04T15:05:47;18.40;67.50
33863;DHT22;20158;51.436;-2.742;2024-02-04T15:08:19;18.30;67.40
33863;DHT22;20158;51.436;-2.742;2024-02-04T15:10:46;18.30;67.40
33863;DHT22;20158;51.436;-2.742;2024-02-04T15:13:15;18.20;67.20
33863;DHT22;20158;51.436;-2.742;2024-02-04T15:15:41;18.20;67.20
33863;DHT22;20158;51.436;-2.742;2024-02-04T15:18:11;18.10;67.00
33863;DHT22;20158;51.436;-2.742;2024-02-04T15:20:37;18.10;67.00
33863;DHT22;20158;51.436;-2.742;2024-02-04T15:23:07;18.00;66.80
33863;DHT22;20158;51.436;-2.742;2024-02-04T15:25:33;17.90;66.70
33863;DHT22;20158;51.436;-2.742;2024-02-04T15:28:00;17.80;66.50